sensor_id;sensor_type;location;lat;lon;timestamp;P1;durP1;ratioP1;P2;durP2;ratioP2
19167;SDS011;9716;53.114;18.040;2022-07-18T00:00:49;4.63;;;1.63;;
19167;SDS011;9716;53.114;18.040;2022-07-18T00:03:18;2.92;;;1.60;;
19167;SDS011;9716;53.114;18.040;2022-07-18T00:05:47;6.78;;;2.30;;
19167;SDS011;9716;53.114;18.040;2022-07-18T00:08:16;4.70;;;1.90;;
19167;SDS011;9716;53.114;18.040;2022-07-18T00:10:45;4.70;;;1.70;;
19167;SDS011;9716;53.114;18.040;2022-07-18T00:13:15;2.95;;;1.77;;
19167;SDS011;9716;53.114;18.040;2022-07-18T00:15:44;1.75;;;1.50;;
19167;SDS011;9716;53.114;18.040;2022-07-18T00:18:13;2.85;;;2.00;;
19167;SDS011;9716;53.114;18.040;2022-07-18T00:20:42;2.85;;;2.00;;
19167;SDS011;9716;53.114;18.040;2022-07-18T00:23:11;2.20;;;1.38;;
19167;SDS011;9716;53.114;18.040;2022-07-18T00:25:40;9.88;;;1.80;;
19167;SDS011;9716;53.114;18.040;2022-07-18T00:28:08;3.72;;;2.10;;
19167;SDS011;9716;53.114;18.040;2022-07-18T00:30:40;3.20;;;1.92;;
19167;SDS011;9716;53.114;18.040;2022-07-18T00:33:10;4.32;;;1.85;;
19167;SDS011;9716;53.114;18.040;2022-07-18T00:35:38;3.92;;;2.00;;
19167;SDS011;9716;53.114;18.040;2022-07-18T00:38:11;4.18;;;2.00;;
19167;SDS011;9716;53.114;18.040;2022-07-18T00:40:41;3.53;;;1.75;;
19167;SDS011;9716;53.114;18.040;2022-07-18T00:43:11;1.92;;;1.42;;
19167;SDS011;9716;53.114;18.040;2022-07-18T00:45:44;3.53;;;1.67;;
19167;SDS011;9716;53.114;18.040;2022-07-18T00:48:15;5.85;;;1.27;;
19167;SDS011;9716;53.114;18.040;2022-07-18T00:50:44;3.65;;;1.83;;
19167;SDS011;9716;53.114;18.040;2022-07-18T00:53:13;1.70;;;1.52;;
19167;SDS011;9716;53.114;18.040;2022-07-18T00:55:44;2.85;;;1.60;;
19167;SDS011;9716;53.114;18.040;2022-07-18T00:58:14;4.13;;;2.25;;
19167;SDS011;9716;53.114;18.040;2022-07-18T01:00:42;3.35;;;1.95;;
19167;SDS011;9716;53.114;18.040;2022-07-18T01:03:30;2.22;;;1.90;;
19167;SDS011;9716;53.114;18.040;2022-07-18T01:05:59;2.00;;;1.65;;
19167;SDS011;9716;53.114;18.040;2022-07-18T01:08:27;1.83;;;1.42;;
19167;SDS011;9716;53.114;18.040;2022-07-18T01:10:57;9.88;;;2.38;;
19167;SDS011;9716;53.114;18.040;2022-07-18T01:13:26;7.05;;;1.85;;
19167;SDS011;9716;53.114;18.040;2022-07-18T01:15:57;2.33;;;1.60;;
19167;SDS011;9716;53.114;18.040;2022-07-18T01:18:26;4.68;;;2.00;;
19167;SDS011;9716;53.114;18.040;2022-07-18T01:20:57;4.57;;;1.98;;
19167;SDS011;9716;53.114;18.040;2022-07-18T01:23:26;1.77;;;1.33;;
19167;SDS011;9716;53.114;18.040;2022-07-18T01:25:55;2.05;;;1.67;;
19167;SDS011;9716;53.114;18.040;2022-07-18T01:28:24;2.60;;;1.58;;
19167;SDS011;9716;53.114;18.040;2022-07-18T01:30:53;2.67;;;1.92;;
19167;SDS011;9716;53.114;18.040;2022-07-18T01:33:22;5.47;;;2.20;;
19167;SDS011;9716;53.114;18.040;2022-07-18T01:35:51;7.13;;;1.98;;
19167;SDS011;9716;53.114;18.040;2022-07-18T01:38:21;4.40;;;2.30;;
19167;SDS011;9716;53.114;18.040;2022-07-18T01:40:50;4.45;;;2.70;;
19167;SDS011;9716;53.114;18.040;2022-07-18T01:43:22;4.22;;;2.17;;
19167;SDS011;9716;53.114;18.040;2022-07-18T01:45:51;3.28;;;1.98;;
19167;SDS011;9716;53.114;18.040;2022-07-18T01:48:21;3.00;;;1.48;;
19167;SDS011;9716;53.114;18.040;2022-07-18T01:50:51;2.97;;;2.00;;
19167;SDS011;9716;53.114;18.040;2022-07-18T01:53:22;4.32;;;2.38;;
19167;SDS011;9716;53.114;18.040;2022-07-18T01:55:51;2.83;;;2.03;;
19167;SDS011;9716;53.114;18.040;2022-07-18T01:58:20;2.17;;;1.55;;
19167;SDS011;9716;53.114;18.040;2022-07-18T02:00:49;5.88;;;2.20;;
19167;SDS011;9716;53.114;18.040;2022-07-18T02:03:19;6.00;;;2.33;;
19167;SDS011;9716;53.114;18.040;2022-07-18T02:05:48;5.68;;;2.00;;
19167;SDS011;9716;53.114;18.040;2022-07-18T02:08:17;2.65;;;2.00;;
19167;SDS011;9716;53.114;18.040;2022-07-18T02:10:47;4.95;;;2.50;;
19167;SDS011;9716;53.114;18.040;2022-07-18T02:13:16;9.68;;;2.45;;
19167;SDS011;9716;53.114;18.040;2022-07-18T02:15:47;3.53;;;2.55;;
19167;SDS011;9716;53.114;18.040;2022-07-18T02:18:16;5.60;;;2.63;;
19167;SDS011;9716;53.114;18.040;2022-07-18T02:20:45;3.67;;;2.28;;
19167;SDS011;9716;53.114;18.040;2022-07-18T02:23:14;7.10;;;2.38;;
19167;SDS011;9716;53.114;18.040;2022-07-18T02:25:43;4.47;;;2.08;;
19167;SDS011;9716;53.114;18.040;2022-07-18T02:28:13;5.05;;;2.15;;
19167;SDS011;9716;53.114;18.040;2022-07-18T02:30:42;3.95;;;1.90;;
19167;SDS011;9716;53.114;18.040;2022-07-18T02:33:11;3.80;;;2.33;;
19167;SDS011;9716;53.114;18.040;2022-07-18T02:35:41;6.50;;;2.25;;
19167;SDS011;9716;53.114;18.040;2022-07-18T02:38:11;3.38;;;2.25;;
19167;SDS011;9716;53.114;18.040;2022-07-18T02:40:40;4.88;;;2.60;;
19167;SDS011;9716;53.114;18.040;2022-07-18T02:43:09;7.13;;;2.17;;
19167;SDS011;9716;53.114;18.040;2022-07-18T02:45:40;3.78;;;1.60;;
19167;SDS011;9716;53.114;18.040;2022-07-18T02:48:10;4.03;;;2.45;;
19167;SDS011;9716;53.114;18.040;2022-07-18T02:50:39;4.72;;;2.00;;
19167;SDS011;9716;53.114;18.040;2022-07-18T02:53:08;3.45;;;2.25;;
19167;SDS011;9716;53.114;18.040;2022-07-18T02:55:39;2.58;;;1.85;;
19167;SDS011;9716;53.114;18.040;2022-07-18T02:58:09;3.70;;;1.95;;
19167;SDS011;9716;53.114;18.040;2022-07-18T03:00:40;4.97;;;2.13;;
19167;SDS011;9716;53.114;18.040;2022-07-18T03:03:09;5.90;;;2.35;;
19167;SDS011;9716;53.114;18.040;2022-07-18T03:05:38;2.90;;;2.35;;
19167;SDS011;9716;53.114;18.040;2022-07-18T03:08:07;4.35;;;2.05;;
19167;SDS011;9716;53.114;18.040;2022-07-18T03:10:37;3.55;;;2.28;;
19167;SDS011;9716;53.114;18.040;2022-07-18T03:13:07;8.85;;;2.20;;
19167;SDS011;9716;53.114;18.040;2022-07-18T03:15:38;2.35;;;1.73;;
19167;SDS011;9716;53.114;18.040;2022-07-18T03:18:09;4.85;;;2.17;;
19167;SDS011;9716;53.114;18.040;2022-07-18T03:20:38;3.88;;;2.20;;
19167;SDS011;9716;53.114;18.040;2022-07-18T03:23:07;2.65;;;2.05;;
19167;SDS011;9716;53.114;18.040;2022-07-18T03:25:37;5.10;;;1.90;;
19167;SDS011;9716;53.114;18.040;2022-07-18T03:28:06;5.25;;;2.10;;
19167;SDS011;9716;53.114;18.040;2022-07-18T03:30:35;4.32;;;2.30;;
19167;SDS011;9716;53.114;18.040;2022-07-18T03:33:06;3.22;;;1.92;;
19167;SDS011;9716;53.114;18.040;2022-07-18T03:35:35;3.08;;;1.75;;
19167;SDS011;9716;53.114;18.040;2022-07-18T03:38:04;2.78;;;2.03;;
19167;SDS011;9716;53.114;18.040;2022-07-18T03:40:33;3.95;;;2.40;;
19167;SDS011;9716;53.114;18.040;2022-07-18T03:43:04;4.10;;;2.03;;
19167;SDS011;9716;53.114;18.040;2022-07-18T03:45:33;6.43;;;2.20;;
19167;SDS011;9716;53.114;18.040;2022-07-18T03:48:09;3.22;;;1.92;;
19167;SDS011;9716;53.114;18.040;2022-07-18T03:50:38;3.63;;;1.83;;
19167;SDS011;9716;53.114;18.040;2022-07-18T03:53:08;3.00;;;2.30;;
19167;SDS011;9716;53.114;18.040;2022-07-18T03:55:40;3.40;;;2.20;;
19167;SDS011;9716;53.114;18.040;2022-07-18T03:58:09;5.53;;;1.98;;
19167;SDS011;9716;53.114;18.040;2022-07-18T04:00:39;16.02;;;1.90;;
19167;SDS011;9716;53.114;18.040;2022-07-18T04:03:10;2.80;;;1.88;;
19167;SDS011;9716;53.114;18.040;2022-07-18T04:05:40;3.72;;;2.00;;
19167;SDS011;9716;53.114;18.040;2022-07-18T04:08:09;2.83;;;2.10;;
19167;SDS011;9716;53.114;18.040;2022-07-18T04:10:38;3.45;;;1.98;;
19167;SDS011;9716;53.114;18.040;2022-07-18T04:13:08;2.28;;;1.73;;
19167;SDS011;9716;53.114;18.040;2022-07-18T04:15:38;2.60;;;1.77;;
19167;SDS011;9716;53.114;18.040;2022-07-18T04:18:07;1.60;;;1.50;;
19167;SDS011;9716;53.114;18.040;2022-07-18T04:20:38;2.85;;;1.70;;
19167;SDS011;9716;53.114;18.040;2022-07-18T04:23:08;7.40;;;1.48;;
19167;SDS011;9716;53.114;18.040;2022-07-18T04:25:41;4.72;;;1.58;;
19167;SDS011;9716;53.114;18.040;2022-07-18T04:28:12;2.28;;;1.52;;
19167;SDS011;9716;53.114;18.040;2022-07-18T04:30:42;2.88;;;1.70;;
19167;SDS011;9716;53.114;18.040;2022-07-18T04:33:12;3.15;;;2.08;;
19167;SDS011;9716;53.114;18.040;2022-07-18T04:35:43;4.68;;;2.20;;
19167;SDS011;9716;53.114;18.040;2022-07-18T04:38:13;5.53;;;2.92;;
19167;SDS011;9716;53.114;18.040;2022-07-18T04:40:44;3.55;;;2.50;;
19167;SDS011;9716;53.114;18.040;2022-07-18T04:43:13;2.30;;;1.83;;
19167;SDS011;9716;53.114;18.040;2022-07-18T04:45:42;9.23;;;3.03;;
19167;SDS011;9716;53.114;18.040;2022-07-18T04:48:11;7.57;;;1.85;;
19167;SDS011;9716;53.114;18.040;2022-07-18T04:50:44;3.03;;;2.13;;
19167;SDS011;9716;53.114;18.040;2022-07-18T04:53:13;3.08;;;1.73;;
19167;SDS011;9716;53.114;18.040;2022-07-18T04:55:42;4.55;;;1.70;;
19167;SDS011;9716;53.114;18.040;2022-07-18T04:58:11;5.40;;;2.22;;
19167;SDS011;9716;53.114;18.040;2022-07-18T05:00:40;3.53;;;1.58;;
19167;SDS011;9716;53.114;18.040;2022-07-18T05:03:09;3.38;;;1.83;;
19167;SDS011;9716;53.114;18.040;2022-07-18T05:05:39;2.75;;;1.60;;
19167;SDS011;9716;53.114;18.040;2022-07-18T05:08:09;7.15;;;1.92;;
19167;SDS011;9716;53.114;18.040;2022-07-18T05:10:40;4.57;;;1.70;;
19167;SDS011;9716;53.114;18.040;2022-07-18T05:13:09;1.67;;;1.20;;
19167;SDS011;9716;53.114;18.040;2022-07-18T05:15:39;2.55;;;1.45;;
19167;SDS011;9716;53.114;18.040;2022-07-18T05:18:08;3.53;;;1.77;;
19167;SDS011;9716;53.114;18.040;2022-07-18T05:20:37;11.70;;;1.27;;
19167;SDS011;9716;53.114;18.040;2022-07-18T05:23:12;2.80;;;1.20;;
19167;SDS011;9716;53.114;18.040;2022-07-18T05:25:42;3.25;;;1.50;;
19167;SDS011;9716;53.114;18.040;2022-07-18T05:28:11;2.13;;;1.50;;
19167;SDS011;9716;53.114;18.040;2022-07-18T05:30:40;2.75;;;1.48;;
19167;SDS011;9716;53.114;18.040;2022-07-18T05:33:09;5.32;;;1.40;;
19167;SDS011;9716;53.114;18.040;2022-07-18T05:35:38;4.80;;;1.30;;
19167;SDS011;9716;53.114;18.040;2022-07-18T05:38:07;3.55;;;1.45;;
19167;SDS011;9716;53.114;18.040;2022-07-18T05:40:37;3.28;;;1.63;;
19167;SDS011;9716;53.114;18.040;2022-07-18T05:43:06;4.82;;;1.48;;
19167;SDS011;9716;53.114;18.040;2022-07-18T05:45:36;2.60;;;1.42;;
19167;SDS011;9716;53.114;18.040;2022-07-18T05:48:06;1.95;;;1.38;;
19167;SDS011;9716;53.114;18.040;2022-07-18T05:50:35;1.65;;;1.20;;
19167;SDS011;9716;53.114;18.040;2022-07-18T05:53:04;2.47;;;1.50;;
19167;SDS011;9716;53.114;18.040;2022-07-18T05:55:33;2.78;;;1.40;;
19167;SDS011;9716;53.114;18.040;2022-07-18T05:58:04;1.58;;;1.20;;
19167;SDS011;9716;53.114;18.040;2022-07-18T06:00:33;5.68;;;1.38;;
19167;SDS011;9716;53.114;18.040;2022-07-18T06:03:02;1.52;;;1.10;;
19167;SDS011;9716;53.114;18.040;2022-07-18T06:05:31;2.72;;;1.52;;
19167;SDS011;9716;53.114;18.040;2022-07-18T06:08:01;3.30;;;1.33;;
19167;SDS011;9716;53.114;18.040;2022-07-18T06:10:30;4.63;;;1.30;;
19167;SDS011;9716;53.114;18.040;2022-07-18T06:12:59;2.65;;;1.50;;
19167;SDS011;9716;53.114;18.040;2022-07-18T06:15:30;5.03;;;1.73;;
19167;SDS011;9716;53.114;18.040;2022-07-18T06:17:59;2.50;;;1.13;;
19167;SDS011;9716;53.114;18.040;2022-07-18T06:20:29;5.10;;;1.45;;
19167;SDS011;9716;53.114;18.040;2022-07-18T06:22:58;1.23;;;1.13;;
19167;SDS011;9716;53.114;18.040;2022-07-18T06:25:27;4.97;;;1.70;;
19167;SDS011;9716;53.114;18.040;2022-07-18T06:27:56;1.75;;;1.20;;
19167;SDS011;9716;53.114;18.040;2022-07-18T06:30:25;2.20;;;1.40;;
19167;SDS011;9716;53.114;18.040;2022-07-18T06:32:55;1.88;;;1.10;;
19167;SDS011;9716;53.114;18.040;2022-07-18T06:35:25;8.38;;;1.50;;
19167;SDS011;9716;53.114;18.040;2022-07-18T06:37:55;1.15;;;1.05;;
19167;SDS011;9716;53.114;18.040;2022-07-18T06:40:23;6.05;;;1.48;;
19167;SDS011;9716;53.114;18.040;2022-07-18T06:42:53;2.28;;;1.30;;
19167;SDS011;9716;53.114;18.040;2022-07-18T06:45:22;4.20;;;1.30;;
19167;SDS011;9716;53.114;18.040;2022-07-18T06:47:51;2.00;;;1.40;;
19167;SDS011;9716;53.114;18.040;2022-07-18T06:50:22;4.05;;;1.95;;
19167;SDS011;9716;53.114;18.040;2022-07-18T06:52:51;4.95;;;1.38;;
19167;SDS011;9716;53.114;18.040;2022-07-18T06:55:20;2.78;;;1.60;;
19167;SDS011;9716;53.114;18.040;2022-07-18T06:57:50;4.55;;;1.40;;
19167;SDS011;9716;53.114;18.040;2022-07-18T07:00:19;3.90;;;1.83;;
19167;SDS011;9716;53.114;18.040;2022-07-18T07:02:48;2.13;;;0.95;;
19167;SDS011;9716;53.114;18.040;2022-07-18T07:05:19;6.07;;;1.40;;
19167;SDS011;9716;53.114;18.040;2022-07-18T07:07:50;2.88;;;1.33;;
19167;SDS011;9716;53.114;18.040;2022-07-18T07:10:19;2.35;;;1.25;;
19167;SDS011;9716;53.114;18.040;2022-07-18T07:12:49;3.13;;;1.80;;
19167;SDS011;9716;53.114;18.040;2022-07-18T07:15:19;1.30;;;1.05;;
19167;SDS011;9716;53.114;18.040;2022-07-18T07:17:51;3.03;;;1.50;;
19167;SDS011;9716;53.114;18.040;2022-07-18T07:20:20;12.98;;;1.55;;
19167;SDS011;9716;53.114;18.040;2022-07-18T07:22:50;1.70;;;1.08;;
19167;SDS011;9716;53.114;18.040;2022-07-18T07:25:22;1.60;;;1.15;;
19167;SDS011;9716;53.114;18.040;2022-07-18T07:27:53;2.83;;;1.30;;
19167;SDS011;9716;53.114;18.040;2022-07-18T07:30:22;8.77;;;1.50;;
19167;SDS011;9716;53.114;18.040;2022-07-18T07:32:51;1.92;;;1.13;;
19167;SDS011;9716;53.114;18.040;2022-07-18T07:35:21;1.35;;;1.10;;
19167;SDS011;9716;53.114;18.040;2022-07-18T07:37:53;1.85;;;1.30;;
19167;SDS011;9716;53.114;18.040;2022-07-18T07:40:23;4.40;;;1.40;;
19167;SDS011;9716;53.114;18.040;2022-07-18T07:43:04;4.65;;;1.65;;
19167;SDS011;9716;53.114;18.040;2022-07-18T07:45:33;4.75;;;1.45;;
19167;SDS011;9716;53.114;18.040;2022-07-18T07:48:03;2.47;;;1.30;;
19167;SDS011;9716;53.114;18.040;2022-07-18T07:50:33;4.18;;;1.42;;
19167;SDS011;9716;53.114;18.040;2022-07-18T07:53:03;11.57;;;1.85;;
19167;SDS011;9716;53.114;18.040;2022-07-18T07:55:32;2.45;;;1.50;;
19167;SDS011;9716;53.114;18.040;2022-07-18T07:58:01;1.25;;;1.15;;
19167;SDS011;9716;53.114;18.040;2022-07-18T08:00:31;3.05;;;1.20;;
19167;SDS011;9716;53.114;18.040;2022-07-18T08:03:01;4.38;;;1.27;;
19167;SDS011;9716;53.114;18.040;2022-07-18T08:05:32;2.00;;;1.20;;
19167;SDS011;9716;53.114;18.040;2022-07-18T08:08:05;3.10;;;1.65;;
19167;SDS011;9716;53.114;18.040;2022-07-18T08:10:34;3.00;;;1.73;;
19167;SDS011;9716;53.114;18.040;2022-07-18T08:13:09;3.33;;;1.77;;
19167;SDS011;9716;53.114;18.040;2022-07-18T08:15:40;2.42;;;1.33;;
19167;SDS011;9716;53.114;18.040;2022-07-18T08:18:09;2.08;;;1.52;;
19167;SDS011;9716;53.114;18.040;2022-07-18T08:20:38;2.53;;;1.55;;
19167;SDS011;9716;53.114;18.040;2022-07-18T08:23:09;3.78;;;1.58;;
19167;SDS011;9716;53.114;18.040;2022-07-18T08:25:40;1.13;;;1.00;;
19167;SDS011;9716;53.114;18.040;2022-07-18T08:28:11;2.83;;;1.40;;
19167;SDS011;9716;53.114;18.040;2022-07-18T08:30:44;4.18;;;1.50;;
19167;SDS011;9716;53.114;18.040;2022-07-18T08:33:13;2.72;;;1.42;;
19167;SDS011;9716;53.114;18.040;2022-07-18T08:35:41;2.78;;;1.77;;
19167;SDS011;9716;53.114;18.040;2022-07-18T08:38:12;6.30;;;1.50;;
19167;SDS011;9716;53.114;18.040;2022-07-18T08:40:41;1.20;;;1.10;;
19167;SDS011;9716;53.114;18.040;2022-07-18T08:43:11;2.60;;;1.50;;
19167;SDS011;9716;53.114;18.040;2022-07-18T08:45:49;3.03;;;1.33;;
19167;SDS011;9716;53.114;18.040;2022-07-18T08:48:20;6.70;;;1.30;;
19167;SDS011;9716;53.114;18.040;2022-07-18T08:50:49;1.88;;;1.10;;
19167;SDS011;9716;53.114;18.040;2022-07-18T08:53:19;3.15;;;1.23;;
19167;SDS011;9716;53.114;18.040;2022-07-18T08:55:48;1.95;;;1.42;;
19167;SDS011;9716;53.114;18.040;2022-07-18T08:58:17;2.30;;;1.10;;
19167;SDS011;9716;53.114;18.040;2022-07-18T09:01:07;6.40;;;1.20;;
19167;SDS011;9716;53.114;18.040;2022-07-18T09:03:36;2.30;;;1.33;;
19167;SDS011;9716;53.114;18.040;2022-07-18T09:06:05;4.55;;;1.10;;
19167;SDS011;9716;53.114;18.040;2022-07-18T09:08:38;2.60;;;1.30;;
19167;SDS011;9716;53.114;18.040;2022-07-18T09:11:08;7.63;;;1.17;;
19167;SDS011;9716;53.114;18.040;2022-07-18T09:13:58;1.85;;;1.15;;
19167;SDS011;9716;53.114;18.040;2022-07-18T09:16:27;1.20;;;1.10;;
19167;SDS011;9716;53.114;18.040;2022-07-18T09:18:56;3.13;;;1.30;;
19167;SDS011;9716;53.114;18.040;2022-07-18T09:21:35;2.97;;;1.35;;
19167;SDS011;9716;53.114;18.040;2022-07-18T09:24:07;1.23;;;1.05;;
19167;SDS011;9716;53.114;18.040;2022-07-18T09:26:37;0.82;;;0.80;;
19167;SDS011;9716;53.114;18.040;2022-07-18T09:29:07;3.60;;;1.20;;
19167;SDS011;9716;53.114;18.040;2022-07-18T09:31:55;4.30;;;1.50;;
19167;SDS011;9716;53.114;18.040;2022-07-18T09:37:11;5.07;;;1.35;;
19167;SDS011;9716;53.114;18.040;2022-07-18T09:39:41;1.65;;;1.00;;
19167;SDS011;9716;53.114;18.040;2022-07-18T09:42:13;2.40;;;1.30;;
19167;SDS011;9716;53.114;18.040;2022-07-18T09:44:43;1.23;;;1.13;;
19167;SDS011;9716;53.114;18.040;2022-07-18T09:47:25;1.35;;;1.00;;
19167;SDS011;9716;53.114;18.040;2022-07-18T09:49:54;1.40;;;1.13;;
19167;SDS011;9716;53.114;18.040;2022-07-18T09:52:23;1.17;;;0.95;;
19167;SDS011;9716;53.114;18.040;2022-07-18T09:54:53;2.70;;;1.20;;
19167;SDS011;9716;53.114;18.040;2022-07-18T09:57:33;1.85;;;1.40;;
19167;SDS011;9716;53.114;18.040;2022-07-18T10:00:04;1.42;;;1.33;;
19167;SDS011;9716;53.114;18.040;2022-07-18T10:02:34;1.60;;;1.13;;
19167;SDS011;9716;53.114;18.040;2022-07-18T10:05:04;2.35;;;1.25;;
19167;SDS011;9716;53.114;18.040;2022-07-18T10:07:36;3.03;;;1.20;;
19167;SDS011;9716;53.114;18.040;2022-07-18T10:10:07;2.53;;;1.40;;
19167;SDS011;9716;53.114;18.040;2022-07-18T10:12:36;2.88;;;1.33;;
19167;SDS011;9716;53.114;18.040;2022-07-18T10:15:10;3.58;;;1.55;;
19167;SDS011;9716;53.114;18.040;2022-07-18T10:17:39;2.40;;;1.40;;
19167;SDS011;9716;53.114;18.040;2022-07-18T10:20:08;2.05;;;1.05;;
19167;SDS011;9716;53.114;18.040;2022-07-18T10:22:38;3.53;;;1.48;;
19167;SDS011;9716;53.114;18.040;2022-07-18T10:25:11;1.30;;;1.02;;
19167;SDS011;9716;53.114;18.040;2022-07-18T10:27:47;1.20;;;1.08;;
19167;SDS011;9716;53.114;18.040;2022-07-18T10:30:18;3.72;;;1.20;;
19167;SDS011;9716;53.114;18.040;2022-07-18T10:32:58;2.15;;;1.23;;
19167;SDS011;9716;53.114;18.040;2022-07-18T10:38:37;2.00;;;1.00;;
19167;SDS011;9716;53.114;18.040;2022-07-18T10:41:12;13.95;;;1.85;;
19167;SDS011;9716;53.114;18.040;2022-07-18T10:43:43;1.73;;;1.25;;
19167;SDS011;9716;53.114;18.040;2022-07-18T10:46:13;1.73;;;1.40;;
19167;SDS011;9716;53.114;18.040;2022-07-18T10:51:32;0.98;;;0.95;;
19167;SDS011;9716;53.114;18.040;2022-07-18T10:54:11;2.25;;;1.25;;
19167;SDS011;9716;53.114;18.040;2022-07-18T10:59:38;2.22;;;1.10;;
19167;SDS011;9716;53.114;18.040;2022-07-18T11:02:32;5.88;;;1.15;;
19167;SDS011;9716;53.114;18.040;2022-07-18T11:05:03;3.13;;;1.27;;
19167;SDS011;9716;53.114;18.040;2022-07-18T11:08:15;2.45;;;1.30;;
19167;SDS011;9716;53.114;18.040;2022-07-18T11:11:03;1.55;;;1.20;;
19167;SDS011;9716;53.114;18.040;2022-07-18T11:13:44;1.48;;;1.30;;
19167;SDS011;9716;53.114;18.040;2022-07-18T11:16:19;1.80;;;1.10;;
19167;SDS011;9716;53.114;18.040;2022-07-18T11:21:55;1.17;;;1.08;;
19167;SDS011;9716;53.114;18.040;2022-07-18T11:24:25;2.25;;;1.23;;
19167;SDS011;9716;53.114;18.040;2022-07-18T11:26:55;3.90;;;1.40;;
19167;SDS011;9716;53.114;18.040;2022-07-18T11:29:26;0.90;;;0.90;;
19167;SDS011;9716;53.114;18.040;2022-07-18T11:31:55;3.85;;;1.48;;
19167;SDS011;9716;53.114;18.040;2022-07-18T11:34:26;4.13;;;1.23;;
19167;SDS011;9716;53.114;18.040;2022-07-18T11:37:11;1.20;;;1.10;;
19167;SDS011;9716;53.114;18.040;2022-07-18T11:39:41;3.78;;;1.25;;
19167;SDS011;9716;53.114;18.040;2022-07-18T11:42:10;1.90;;;1.10;;
19167;SDS011;9716;53.114;18.040;2022-07-18T11:44:41;2.78;;;1.40;;
19167;SDS011;9716;53.114;18.040;2022-07-18T11:47:11;4.55;;;1.60;;
19167;SDS011;9716;53.114;18.040;2022-07-18T11:49:53;2.05;;;1.15;;
19167;SDS011;9716;53.114;18.040;2022-07-18T11:52:23;1.50;;;1.08;;
19167;SDS011;9716;53.114;18.040;2022-07-18T11:54:58;1.70;;;1.08;;
19167;SDS011;9716;53.114;18.040;2022-07-18T11:57:28;2.67;;;1.25;;
19167;SDS011;9716;53.114;18.040;2022-07-18T11:59:59;2.75;;;0.90;;
19167;SDS011;9716;53.114;18.040;2022-07-18T12:05:53;6.28;;;1.25;;
19167;SDS011;9716;53.114;18.040;2022-07-18T12:08:29;1.45;;;1.35;;
19167;SDS011;9716;53.114;18.040;2022-07-18T12:11:07;1.95;;;1.05;;
19167;SDS011;9716;53.114;18.040;2022-07-18T12:13:43;2.05;;;1.20;;
19167;SDS011;9716;53.114;18.040;2022-07-18T12:16:25;2.95;;;1.20;;
19167;SDS011;9716;53.114;18.040;2022-07-18T12:18:56;2.42;;;1.70;;
19167;SDS011;9716;53.114;18.040;2022-07-18T12:21:37;1.95;;;1.30;;
19167;SDS011;9716;53.114;18.040;2022-07-18T12:24:22;11.70;;;1.67;;
19167;SDS011;9716;53.114;18.040;2022-07-18T12:27:09;2.30;;;1.30;;
19167;SDS011;9716;53.114;18.040;2022-07-18T12:30:00;1.08;;;1.00;;
19167;SDS011;9716;53.114;18.040;2022-07-18T12:32:43;1.83;;;1.23;;
19167;SDS011;9716;53.114;18.040;2022-07-18T12:35:16;1.25;;;1.10;;
19167;SDS011;9716;53.114;18.040;2022-07-18T12:37:55;2.72;;;1.15;;
19167;SDS011;9716;53.114;18.040;2022-07-18T12:40:26;3.15;;;1.15;;
19167;SDS011;9716;53.114;18.040;2022-07-18T12:43:06;1.92;;;1.30;;
19167;SDS011;9716;53.114;18.040;2022-07-18T12:45:37;2.60;;;1.00;;
19167;SDS011;9716;53.114;18.040;2022-07-18T12:48:09;2.15;;;1.27;;
19167;SDS011;9716;53.114;18.040;2022-07-18T12:50:40;1.10;;;0.90;;
19167;SDS011;9716;53.114;18.040;2022-07-18T12:53:09;1.35;;;1.25;;
19167;SDS011;9716;53.114;18.040;2022-07-18T12:55:38;1.50;;;1.10;;
19167;SDS011;9716;53.114;18.040;2022-07-18T12:58:07;1.48;;;1.23;;
19167;SDS011;9716;53.114;18.040;2022-07-18T13:00:36;3.05;;;1.30;;
19167;SDS011;9716;53.114;18.040;2022-07-18T13:03:08;1.58;;;1.23;;
19167;SDS011;9716;53.114;18.040;2022-07-18T13:05:37;3.08;;;1.17;;
19167;SDS011;9716;53.114;18.040;2022-07-18T13:08:06;0.63;;;0.60;;
19167;SDS011;9716;53.114;18.040;2022-07-18T13:10:37;2.88;;;1.10;;
19167;SDS011;9716;53.114;18.040;2022-07-18T13:13:08;0.88;;;0.85;;
19167;SDS011;9716;53.114;18.040;2022-07-18T13:15:38;1.13;;;0.90;;
19167;SDS011;9716;53.114;18.040;2022-07-18T13:18:08;1.00;;;0.90;;
19167;SDS011;9716;53.114;18.040;2022-07-18T13:20:37;2.08;;;1.08;;
19167;SDS011;9716;53.114;18.040;2022-07-18T13:23:09;1.20;;;1.00;;
19167;SDS011;9716;53.114;18.040;2022-07-18T13:25:42;3.33;;;1.02;;
19167;SDS011;9716;53.114;18.040;2022-07-18T13:28:11;2.72;;;1.27;;
19167;SDS011;9716;53.114;18.040;2022-07-18T13:30:40;1.67;;;1.25;;
19167;SDS011;9716;53.114;18.040;2022-07-18T13:33:11;1.63;;;1.10;;
19167;SDS011;9716;53.114;18.040;2022-07-18T13:35:40;1.08;;;0.90;;
19167;SDS011;9716;53.114;18.040;2022-07-18T13:38:09;0.93;;;0.82;;
19167;SDS011;9716;53.114;18.040;2022-07-18T13:40:38;1.45;;;1.10;;
19167;SDS011;9716;53.114;18.040;2022-07-18T13:43:06;1.60;;;1.02;;
19167;SDS011;9716;53.114;18.040;2022-07-18T13:45:35;1.55;;;1.10;;
19167;SDS011;9716;53.114;18.040;2022-07-18T13:48:05;2.58;;;0.95;;
19167;SDS011;9716;53.114;18.040;2022-07-18T13:50:35;4.53;;;1.35;;
19167;SDS011;9716;53.114;18.040;2022-07-18T13:53:04;2.83;;;1.10;;
19167;SDS011;9716;53.114;18.040;2022-07-18T13:55:33;1.00;;;0.98;;
19167;SDS011;9716;53.114;18.040;2022-07-18T13:58:05;1.52;;;1.30;;
19167;SDS011;9716;53.114;18.040;2022-07-18T14:00:34;1.83;;;1.13;;
19167;SDS011;9716;53.114;18.040;2022-07-18T14:03:03;3.80;;;1.67;;
19167;SDS011;9716;53.114;18.040;2022-07-18T14:05:34;2.60;;;0.93;;
19167;SDS011;9716;53.114;18.040;2022-07-18T14:08:04;1.52;;;1.13;;
19167;SDS011;9716;53.114;18.040;2022-07-18T14:10:33;1.15;;;1.00;;
19167;SDS011;9716;53.114;18.040;2022-07-18T14:13:02;1.83;;;0.95;;
19167;SDS011;9716;53.114;18.040;2022-07-18T14:15:32;3.60;;;1.15;;
19167;SDS011;9716;53.114;18.040;2022-07-18T14:18:00;1.20;;;1.10;;
19167;SDS011;9716;53.114;18.040;2022-07-18T14:20:31;1.42;;;0.95;;
19167;SDS011;9716;53.114;18.040;2022-07-18T14:23:01;1.77;;;1.20;;
19167;SDS011;9716;53.114;18.040;2022-07-18T14:25:30;2.67;;;1.15;;
19167;SDS011;9716;53.114;18.040;2022-07-18T14:27:59;1.55;;;0.88;;
19167;SDS011;9716;53.114;18.040;2022-07-18T14:30:28;2.03;;;1.02;;
19167;SDS011;9716;53.114;18.040;2022-07-18T14:32:57;1.05;;;0.93;;
19167;SDS011;9716;53.114;18.040;2022-07-18T14:35:26;2.38;;;1.25;;
19167;SDS011;9716;53.114;18.040;2022-07-18T14:37:55;4.05;;;1.30;;
19167;SDS011;9716;53.114;18.040;2022-07-18T14:40:26;1.38;;;1.23;;
19167;SDS011;9716;53.114;18.040;2022-07-18T14:42:55;2.03;;;1.23;;
19167;SDS011;9716;53.114;18.040;2022-07-18T14:45:24;1.15;;;0.95;;
19167;SDS011;9716;53.114;18.040;2022-07-18T14:47:58;1.48;;;1.20;;
19167;SDS011;9716;53.114;18.040;2022-07-18T14:50:27;9.88;;;1.30;;
19167;SDS011;9716;53.114;18.040;2022-07-18T14:52:56;1.95;;;1.08;;
19167;SDS011;9716;53.114;18.040;2022-07-18T14:55:27;2.00;;;1.08;;
19167;SDS011;9716;53.114;18.040;2022-07-18T14:57:56;2.15;;;1.60;;
19167;SDS011;9716;53.114;18.040;2022-07-18T15:00:25;2.45;;;1.33;;
19167;SDS011;9716;53.114;18.040;2022-07-18T15:02:53;1.92;;;1.20;;
19167;SDS011;9716;53.114;18.040;2022-07-18T15:05:22;1.55;;;1.42;;
19167;SDS011;9716;53.114;18.040;2022-07-18T15:07:51;1.77;;;0.90;;
19167;SDS011;9716;53.114;18.040;2022-07-18T15:10:20;1.42;;;1.08;;
19167;SDS011;9716;53.114;18.040;2022-07-18T15:12:50;1.45;;;1.10;;
19167;SDS011;9716;53.114;18.040;2022-07-18T15:15:19;2.35;;;1.13;;
19167;SDS011;9716;53.114;18.040;2022-07-18T15:17:48;1.70;;;1.10;;
19167;SDS011;9716;53.114;18.040;2022-07-18T15:20:17;1.55;;;0.90;;
19167;SDS011;9716;53.114;18.040;2022-07-18T15:22:46;1.20;;;1.10;;
19167;SDS011;9716;53.114;18.040;2022-07-18T15:25:15;8.88;;;1.40;;
19167;SDS011;9716;53.114;18.040;2022-07-18T15:27:46;2.05;;;1.38;;